sensor_id;sensor_type;location;lat;lon;timestamp;temperature;humidity
64888;DHT22;51386;53.082;8.816;2023-07-22T00:01:44;17.80;79.50
64888;DHT22;51386;53.082;8.816;2023-07-22T00:04:11;17.80;79.70
64888;DHT22;51386;53.082;8.816;2023-07-22T00:06:38;17.80;79.70
64888;DHT22;51386;53.082;8.816;2023-07-22T00:09:05;17.70;79.50
64888;DHT22;51386;53.082;8.816;2023-07-22T00:11:32;17.70;79.60
64888;DHT22;51386;53.082;8.816;2023-07-22T00:13:59;17.70;79.70
64888;DHT22;51386;53.082;8.816;2023-07-22T00:16:27;17.70;79.80
64888;DHT22;51386;53.082;8.816;2023-07-22T00:18:56;17.60;79.60
64888;DHT22;51386;53.082;8.816;2023-07-22T00:21:23;17.60;79.60
64888;DHT22;51386;53.082;8.816;2023-07-22T00:23:50;17.60;80.00
64888;DHT22;51386;53.082;8.816;2023-07-22T00:26:17;17.60;80.00
64888;DHT22;51386;53.082;8.816;2023-07-22T00:28:44;17.70;79.90
64888;DHT22;51386;53.082;8.816;2023-07-22T00:31:11;17.60;80.00
64888;DHT22;51386;53.082;8.816;2023-07-22T00:33:40;17.60;80.00
64888;DHT22;51386;53.082;8.816;2023-07-22T00:36:07;17.60;80.10
64888;DHT22;51386;53.082;8.816;2023-07-22T00:38:34;17.60;80.10
64888;DHT22;51386;53.082;8.816;2023-07-22T00:41:01;17.60;80.50
64888;DHT22;51386;53.082;8.816;2023-07-22T00:43:31;17.50;80.10
64888;DHT22;51386;53.082;8.816;2023-07-22T00:45:58;17.50;80.30
64888;DHT22;51386;53.082;8.816;2023-07-22T00:48:27;17.50;80.20
64888;DHT22;51386;53.082;8.816;2023-07-22T00:50:55;17.50;80.40
64888;DHT22;51386;53.082;8.816;2023-07-22T00:53:23;17.50;80.10
64888;DHT22;51386;53.082;8.816;2023-07-22T00:55:50;17.50;80.20
64888;DHT22;51386;53.082;8.816;2023-07-22T00:58:17;17.50;80.50
64888;DHT22;51386;53.082;8.816;2023-07-22T01:00:44;17.50;80.20
64888;DHT22;51386;53.082;8.816;2023-07-22T01:03:11;17.50;80.10
64888;DHT22;51386;53.082;8.816;2023-07-22T01:05:39;17.50;79.90
64888;DHT22;51386;53.082;8.816;2023-07-22T01:08:09;17.50;79.90
64888;DHT22;51386;53.082;8.816;2023-07-22T01:10:36;17.40;79.70
64888;DHT22;51386;53.082;8.816;2023-07-22T01:13:03;17.40;80.00
64888;DHT22;51386;53.082;8.816;2023-07-22T01:15:31;17.40;79.70
64888;DHT22;51386;53.082;8.816;2023-07-22T01:17:59;17.40;80.00
64888;DHT22;51386;53.082;8.816;2023-07-22T01:20:30;17.40;79.90
64888;DHT22;51386;53.082;8.816;2023-07-22T01:22:59;17.40;80.00
64888;DHT22;51386;53.082;8.816;2023-07-22T01:25:28;17.40;79.70
64888;DHT22;51386;53.082;8.816;2023-07-22T01:27:56;17.40;79.70
64888;DHT22;51386;53.082;8.816;2023-07-22T01:30:23;17.30;79.50
64888;DHT22;51386;53.082;8.816;2023-07-22T01:32:50;17.30;79.80
64888;DHT22;51386;53.082;8.816;2023-07-22T01:35:18;17.30;80.00
64888;DHT22;51386;53.082;8.816;2023-07-22T01:37:46;17.30;79.80
64888;DHT22;51386;53.082;8.816;2023-07-22T01:40:14;17.20;79.80
64888;DHT22;51386;53.082;8.816;2023-07-22T01:42:42;17.20;79.80
64888;DHT22;51386;53.082;8.816;2023-07-22T01:45:09;17.20;79.80
64888;DHT22;51386;53.082;8.816;2023-07-22T01:47:39;17.10;80.50
64888;DHT22;51386;53.082;8.816;2023-07-22T01:50:09;17.10;79.70
64888;DHT22;51386;53.082;8.816;2023-07-22T01:52:37;17.10;79.80
64888;DHT22;51386;53.082;8.816;2023-07-22T01:55:05;17.00;79.60
64888;DHT22;51386;53.082;8.816;2023-07-22T01:57:34;17.00;79.70
64888;DHT22;51386;53.082;8.816;2023-07-22T02:00:01;17.00;79.90
64888;DHT22;51386;53.082;8.816;2023-07-22T02:02:31;16.90;80.10
64888;DHT22;51386;53.082;8.816;2023-07-22T02:04:59;16.90;80.10
64888;DHT22;51386;53.082;8.816;2023-07-22T02:07:26;16.80;80.40
64888;DHT22;51386;53.082;8.816;2023-07-22T02:09:55;16.80;80.20
64888;DHT22;51386;53.082;8.816;2023-07-22T02:12:22;16.80;80.20
64888;DHT22;51386;53.082;8.816;2023-07-22T02:14:51;16.70;80.30
64888;DHT22;51386;53.082;8.816;2023-07-22T02:17:18;16.70;80.30
64888;DHT22;51386;53.082;8.816;2023-07-22T02:19:45;16.70;80.40
64888;DHT22;51386;53.082;8.816;2023-07-22T02:22:12;16.70;80.40
64888;DHT22;51386;53.082;8.816;2023-07-22T02:24:39;16.60;80.60
64888;DHT22;51386;53.082;8.816;2023-07-22T02:27:06;16.60;80.90
64888;DHT22;51386;53.082;8.816;2023-07-22T02:29:35;16.60;80.90
64888;DHT22;51386;53.082;8.816;2023-07-22T02:32:05;16.60;80.70
64888;DHT22;51386;53.082;8.816;2023-07-22T02:34:32;16.60;81.00
64888;DHT22;51386;53.082;8.816;2023-07-22T02:36:59;16.60;81.00
64888;DHT22;51386;53.082;8.816;2023-07-22T02:39:26;16.50;80.90
64888;DHT22;51386;53.082;8.816;2023-07-22T02:41:53;16.50;81.10
64888;DHT22;51386;53.082;8.816;2023-07-22T02:44:20;16.50;81.10
64888;DHT22;51386;53.082;8.816;2023-07-22T02:46:47;16.50;81.20
64888;DHT22;51386;53.082;8.816;2023-07-22T02:49:16;16.50;81.10
64888;DHT22;51386;53.082;8.816;2023-07-22T02:51:43;16.40;81.10
64888;DHT22;51386;53.082;8.816;2023-07-22T02:54:10;16.40;81.20
64888;DHT22;51386;53.082;8.816;2023-07-22T02:56:37;16.40;81.40
64888;DHT22;51386;53.082;8.816;2023-07-22T02:59:04;16.40;81.50
64888;DHT22;51386;53.082;8.816;2023-07-22T03:01:32;16.40;81.50
64888;DHT22;51386;53.082;8.816;2023-07-22T03:03:59;16.40;81.40
64888;DHT22;51386;53.082;8.816;2023-07-22T03:06:28;16.40;81.40
64888;DHT22;51386;53.082;8.816;2023-07-22T03:08:55;16.40;81.40
64888;DHT22;51386;53.082;8.816;2023-07-22T03:11:24;16.40;81.40
64888;DHT22;51386;53.082;8.816;2023-07-22T03:13:52;16.40;81.50
64888;DHT22;51386;53.082;8.816;2023-07-22T03:16:20;16.40;81.50
64888;DHT22;51386;53.082;8.816;2023-07-22T03:18:47;16.30;81.50
64888;DHT22;51386;53.082;8.816;2023-07-22T03:21:14;16.30;81.50
64888;DHT22;51386;53.082;8.816;2023-07-22T03:23:42;16.30;81.60
64888;DHT22;51386;53.082;8.816;2023-07-22T03:26:09;16.30;81.70
64888;DHT22;51386;53.082;8.816;2023-07-22T03:28:37;16.20;81.80
64888;DHT22;51386;53.082;8.816;2023-07-22T03:31:04;16.20;81.70
64888;DHT22;51386;53.082;8.816;2023-07-22T03:33:31;16.20;82.00
64888;DHT22;51386;53.082;8.816;2023-07-22T03:35:58;16.20;82.00
64888;DHT22;51386;53.082;8.816;2023-07-22T03:38:25;16.20;82.00
64888;DHT22;51386;53.082;8.816;2023-07-22T03:40:53;16.20;82.00
64888;DHT22;51386;53.082;8.816;2023-07-22T03:43:20;16.20;82.10
64888;DHT22;51386;53.082;8.816;2023-07-22T03:45:47;16.10;81.90
64888;DHT22;51386;53.082;8.816;2023-07-22T03:48:14;16.10;82.10
64888;DHT22;51386;53.082;8.816;2023-07-22T03:50:41;16.10;82.10
64888;DHT22;51386;53.082;8.816;2023-07-22T03:53:08;16.10;82.40
64888;DHT22;51386;53.082;8.816;2023-07-22T03:55:35;16.10;82.30
64888;DHT22;51386;53.082;8.816;2023-07-22T03:58:04;16.10;82.10
64888;DHT22;51386;53.082;8.816;2023-07-22T04:00:31;16.10;82.10
64888;DHT22;51386;53.082;8.816;2023-07-22T04:02:58;16.10;82.30
64888;DHT22;51386;53.082;8.816;2023-07-22T04:05:25;16.10;82.20
64888;DHT22;51386;53.082;8.816;2023-07-22T04:07:52;16.00;82.20
64888;DHT22;51386;53.082;8.816;2023-07-22T04:10:19;16.00;82.40
64888;DHT22;51386;53.082;8.816;2023-07-22T04:12:46;16.00;82.40
64888;DHT22;51386;53.082;8.816;2023-07-22T04:15:15;16.00;82.40
64888;DHT22;51386;53.082;8.816;2023-07-22T04:17:44;16.00;82.50
64888;DHT22;51386;53.082;8.816;2023-07-22T04:20:11;16.00;82.60
64888;DHT22;51386;53.082;8.816;2023-07-22T04:22:38;16.00;82.50
64888;DHT22;51386;53.082;8.816;2023-07-22T04:25:06;16.00;82.60
64888;DHT22;51386;53.082;8.816;2023-07-22T04:27:34;16.00;82.60
64888;DHT22;51386;53.082;8.816;2023-07-22T04:30:01;16.00;82.60
64888;DHT22;51386;53.082;8.816;2023-07-22T04:32:31;16.00;82.70
64888;DHT22;51386;53.082;8.816;2023-07-22T04:34:58;16.00;82.90
64888;DHT22;51386;53.082;8.816;2023-07-22T04:37:25;16.00;82.80
64888;DHT22;51386;53.082;8.816;2023-07-22T04:39:54;16.00;82.80
64888;DHT22;51386;53.082;8.816;2023-07-22T04:42:21;16.00;83.00
64888;DHT22;51386;53.082;8.816;2023-07-22T04:44:48;16.00;82.90
64888;DHT22;51386;53.082;8.816;2023-07-22T04:47:15;16.00;82.90
64888;DHT22;51386;53.082;8.816;2023-07-22T04:49:44;16.00;82.90
64888;DHT22;51386;53.082;8.816;2023-07-22T04:52:11;16.00;83.00
64888;DHT22;51386;53.082;8.816;2023-07-22T04:54:38;16.00;83.00
64888;DHT22;51386;53.082;8.816;2023-07-22T04:57:05;16.10;83.10
64888;DHT22;51386;53.082;8.816;2023-07-22T04:59:32;16.10;82.90
64888;DHT22;51386;53.082;8.816;2023-07-22T05:01:59;16.10;82.80
64888;DHT22;51386;53.082;8.816;2023-07-22T05:04:26;16.10;82.90
64888;DHT22;51386;53.082;8.816;2023-07-22T05:06:55;16.20;83.10
64888;DHT22;51386;53.082;8.816;2023-07-22T05:09:22;16.20;83.10
64888;DHT22;51386;53.082;8.816;2023-07-22T05:11:49;16.20;82.90
64888;DHT22;51386;53.082;8.816;2023-07-22T05:14:16;16.30;83.00
64888;DHT22;51386;53.082;8.816;2023-07-22T05:16:43;16.30;82.70
64888;DHT22;51386;53.082;8.816;2023-07-22T05:19:10;16.30;82.60
64888;DHT22;51386;53.082;8.816;2023-07-22T05:21:37;16.40;82.60
64888;DHT22;51386;53.082;8.816;2023-07-22T05:24:05;16.40;82.40
64888;DHT22;51386;53.082;8.816;2023-07-22T05:26:32;16.40;82.40
64888;DHT22;51386;53.082;8.816;2023-07-22T05:28:59;16.50;82.50
64888;DHT22;51386;53.082;8.816;2023-07-22T05:31:26;16.60;82.50
64888;DHT22;51386;53.082;8.816;2023-07-22T05:33:53;16.60;82.20
64888;DHT22;51386;53.082;8.816;2023-07-22T05:36:21;16.70;82.10
64888;DHT22;51386;53.082;8.816;2023-07-22T05:38:48;16.80;82.00
64888;DHT22;51386;53.082;8.816;2023-07-22T05:41:16;16.80;81.60
64888;DHT22;51386;53.082;8.816;2023-07-22T05:43:43;16.90;81.40
64888;DHT22;51386;53.082;8.816;2023-07-22T05:46:10;16.90;81.40
64888;DHT22;51386;53.082;8.816;2023-07-22T05:48:37;17.00;81.30
64888;DHT22;51386;53.082;8.816;2023-07-22T05:51:04;17.10;81.10
64888;DHT22;51386;53.082;8.816;2023-07-22T05:53:32;17.20;80.70
64888;DHT22;51386;53.082;8.816;2023-07-22T05:56:00;17.20;80.60
64888;DHT22;51386;53.082;8.816;2023-07-22T05:58:28;17.30;80.60
64888;DHT22;51386;53.082;8.816;2023-07-22T06:00:55;17.40;80.40
64888;DHT22;51386;53.082;8.816;2023-07-22T06:03:22;17.40;80.00
64888;DHT22;51386;53.082;8.816;2023-07-22T06:05:50;17.50;79.60
64888;DHT22;51386;53.082;8.816;2023-07-22T06:08:17;17.50;79.20
64888;DHT22;51386;53.082;8.816;2023-07-22T06:10:44;17.60;79.30
64888;DHT22;51386;53.082;8.816;2023-07-22T06:13:11;17.60;79.30
64888;DHT22;51386;53.082;8.816;2023-07-22T06:15:39;17.60;79.30
64888;DHT22;51386;53.082;8.816;2023-07-22T06:18:06;17.60;79.30
64888;DHT22;51386;53.082;8.816;2023-07-22T06:20:35;17.60;79.30
64888;DHT22;51386;53.082;8.816;2023-07-22T06:23:03;17.60;79.00
64888;DHT22;51386;53.082;8.816;2023-07-22T06:25:30;17.60;78.70
64888;DHT22;51386;53.082;8.816;2023-07-22T06:27:57;17.70;78.80
64888;DHT22;51386;53.082;8.816;2023-07-22T06:30:24;17.70;78.80
64888;DHT22;51386;53.082;8.816;2023-07-22T06:32:52;17.70;78.50
64888;DHT22;51386;53.082;8.816;2023-07-22T06:35:19;17.80;78.50
64888;DHT22;51386;53.082;8.816;2023-07-22T06:37:46;17.80;78.40
64888;DHT22;51386;53.082;8.816;2023-07-22T06:40:13;17.90;78.30
64888;DHT22;51386;53.082;8.816;2023-07-22T06:42:40;18.00;78.00
64888;DHT22;51386;53.082;8.816;2023-07-22T06:45:08;18.00;77.40
64888;DHT22;51386;53.082;8.816;2023-07-22T06:47:35;18.10;77.30
64888;DHT22;51386;53.082;8.816;2023-07-22T06:50:05;18.20;77.40
64888;DHT22;51386;53.082;8.816;2023-07-22T06:52:33;18.20;77.40
64888;DHT22;51386;53.082;8.816;2023-07-22T06:55:00;18.30;77.50
64888;DHT22;51386;53.082;8.816;2023-07-22T06:57:29;18.30;77.30
64888;DHT22;51386;53.082;8.816;2023-07-22T06:59:56;18.50;76.40
64888;DHT22;51386;53.082;8.816;2023-07-22T07:02:23;18.50;76.10
64888;DHT22;51386;53.082;8.816;2023-07-22T07:04:51;18.60;75.80
64888;DHT22;51386;53.082;8.816;2023-07-22T07:07:19;18.70;75.60
64888;DHT22;51386;53.082;8.816;2023-07-22T07:09:46;18.70;75.70
64888;DHT22;51386;53.082;8.816;2023-07-22T07:12:13;18.70;74.90
64888;DHT22;51386;53.082;8.816;2023-07-22T07:14:40;18.80;74.90
64888;DHT22;51386;53.082;8.816;2023-07-22T07:17:07;18.80;74.10
64888;DHT22;51386;53.082;8.816;2023-07-22T07:19:34;18.90;73.90
64888;DHT22;51386;53.082;8.816;2023-07-22T07:22:01;18.90;74.00
64888;DHT22;51386;53.082;8.816;2023-07-22T07:24:30;19.00;74.10
64888;DHT22;51386;53.082;8.816;2023-07-22T07:26:57;19.10;74.10
64888;DHT22;51386;53.082;8.816;2023-07-22T07:29:24;19.10;74.20
64888;DHT22;51386;53.082;8.816;2023-07-22T07:32:11;19.20;74.00
64888;DHT22;51386;53.082;8.816;2023-07-22T07:34:38;19.30;73.10
64888;DHT22;51386;53.082;8.816;2023-07-22T07:37:05;19.30;72.50
64888;DHT22;51386;53.082;8.816;2023-07-22T07:39:34;19.30;72.50
64888;DHT22;51386;53.082;8.816;2023-07-22T07:42:01;19.40;72.60
64888;DHT22;51386;53.082;8.816;2023-07-22T07:44:28;19.50;72.50
64888;DHT22;51386;53.082;8.816;2023-07-22T07:46:56;19.50;72.40
64888;DHT22;51386;53.082;8.816;2023-07-22T07:49:23;19.60;72.00
64888;DHT22;51386;53.082;8.816;2023-07-22T07:51:50;19.70;71.20
64888;DHT22;51386;53.082;8.816;2023-07-22T07:54:17;19.70;71.00
64888;DHT22;51386;53.082;8.816;2023-07-22T07:56:45;19.80;71.00
64888;DHT22;51386;53.082;8.816;2023-07-22T07:59:12;19.80;70.50
64888;DHT22;51386;53.082;8.816;2023-07-22T08:01:39;19.80;70.40
64888;DHT22;51386;53.082;8.816;2023-07-22T08:04:08;19.80;71.00
64888;DHT22;51386;53.082;8.816;2023-07-22T08:06:36;19.80;71.70
64888;DHT22;51386;53.082;8.816;2023-07-22T08:09:04;19.80;72.30
64888;DHT22;51386;53.082;8.816;2023-07-22T08:11:32;19.80;72.40
64888;DHT22;51386;53.082;8.816;2023-07-22T08:14:01;19.90;72.80
64888;DHT22;51386;53.082;8.816;2023-07-22T08:16:28;20.00;73.20
64888;DHT22;51386;53.082;8.816;2023-07-22T08:18:56;20.30;70.40
64888;DHT22;51386;53.082;8.816;2023-07-22T08:21:23;20.60;69.70
64888;DHT22;51386;53.082;8.816;2023-07-22T08:23:50;21.00;69.40
64888;DHT22;51386;53.082;8.816;2023-07-22T08:26:17;21.20;68.40
64888;DHT22;51386;53.082;8.816;2023-07-22T08:28:47;21.50;67.70
64888;DHT22;51386;53.082;8.816;2023-07-22T08:31:16;21.80;67.60
64888;DHT22;51386;53.082;8.816;2023-07-22T08:33:43;22.00;65.30
64888;DHT22;51386;53.082;8.816;2023-07-22T08:36:10;22.20;63.50
64888;DHT22;51386;53.082;8.816;2023-07-22T08:38:37;22.50;62.40
64888;DHT22;51386;53.082;8.816;2023-07-22T08:41:04;22.60;62.10
64888;DHT22;51386;53.082;8.816;2023-07-22T08:43:34;22.80;62.10
64888;DHT22;51386;53.082;8.816;2023-07-22T08:46:06;23.10;62.30
64888;DHT22;51386;53.082;8.816;2023-07-22T08:48:36;23.30;59.70
64888;DHT22;51386;53.082;8.816;2023-07-22T08:51:10;23.40;59.50
64888;DHT22;51386;53.082;8.816;2023-07-22T08:53:43;23.30;59.20
64888;DHT22;51386;53.082;8.816;2023-07-22T08:56:19;23.10;58.80
64888;DHT22;51386;53.082;8.816;2023-07-22T08:58:48;22.90;58.80
64888;DHT22;51386;53.082;8.816;2023-07-22T09:01:17;22.70;59.30
64888;DHT22;51386;53.082;8.816;2023-07-22T09:03:48;22.50;59.90
64888;DHT22;51386;53.082;8.816;2023-07-22T09:06:18;22.30;60.40
64888;DHT22;51386;53.082;8.816;2023-07-22T09:08:46;22.30;61.00
64888;DHT22;51386;53.082;8.816;2023-07-22T09:11:15;22.30;61.40
64888;DHT22;51386;53.082;8.816;2023-07-22T09:13:44;22.30;60.60
64888;DHT22;51386;53.082;8.816;2023-07-22T09:16:13;22.30;60.30
64888;DHT22;51386;53.082;8.816;2023-07-22T09:18:42;22.30;60.60
64888;DHT22;51386;53.082;8.816;2023-07-22T09:21:10;22.40;60.90
64888;DHT22;51386;53.082;8.816;2023-07-22T09:23:38;22.40;61.10
64888;DHT22;51386;53.082;8.816;2023-07-22T09:26:09;22.40;61.30
64888;DHT22;51386;53.082;8.816;2023-07-22T09:28:56;22.50;60.50
64888;DHT22;51386;53.082;8.816;2023-07-22T09:31:25;22.60;61.00
64888;DHT22;51386;53.082;8.816;2023-07-22T09:33:54;22.80;60.70
64888;DHT22;51386;53.082;8.816;2023-07-22T09:36:23;23.00;60.30
64888;DHT22;51386;53.082;8.816;2023-07-22T09:39:00;23.40;59.40
64888;DHT22;51386;53.082;8.816;2023-07-22T09:41:30;23.60;57.90
64888;DHT22;51386;53.082;8.816;2023-07-22T09:44:01;23.80;57.60
64888;DHT22;51386;53.082;8.816;2023-07-22T09:46:31;24.00;56.50
64888;DHT22;51386;53.082;8.816;2023-07-22T09:49:04;24.20;56.10
64888;DHT22;51386;53.082;8.816;2023-07-22T09:51:35;24.40;55.80
64888;DHT22;51386;53.082;8.816;2023-07-22T09:54:22;24.50;55.40
64888;DHT22;51386;53.082;8.816;2023-07-22T09:56:53;24.50;55.40
64888;DHT22;51386;53.082;8.816;2023-07-22T09:59:21;24.40;55.60
64888;DHT22;51386;53.082;8.816;2023-07-22T10:01:50;24.20;55.50
64888;DHT22;51386;53.082;8.816;2023-07-22T10:04:21;24.10;55.80
64888;DHT22;51386;53.082;8.816;2023-07-22T10:06:54;24.00;55.80
64888;DHT22;51386;53.082;8.816;2023-07-22T10:09:22;23.90;56.20
64888;DHT22;51386;53.082;8.816;2023-07-22T10:11:55;23.80;55.70
64888;DHT22;51386;53.082;8.816;2023-07-22T10:14:22;23.80;56.20
64888;DHT22;51386;53.082;8.816;2023-07-22T10:16:50;23.80;56.60
64888;DHT22;51386;53.082;8.816;2023-07-22T10:19:20;24.00;56.10
64888;DHT22;51386;53.082;8.816;2023-07-22T10:21:48;24.10;56.00
64888;DHT22;51386;53.082;8.816;2023-07-22T10:24:18;24.10;55.40
64888;DHT22;51386;53.082;8.816;2023-07-22T10:26:48;24.20;55.80
64888;DHT22;51386;53.082;8.816;2023-07-22T10:29:19;24.20;55.90
64888;DHT22;51386;53.082;8.816;2023-07-22T10:31:47;24.20;56.00
64888;DHT22;51386;53.082;8.816;2023-07-22T10:34:21;24.20;55.50
64888;DHT22;51386;53.082;8.816;2023-07-22T10:36:48;24.00;55.00
64888;DHT22;51386;53.082;8.816;2023-07-22T10:39:26;23.90;55.70
64888;DHT22;51386;53.082;8.816;2023-07-22T10:42:00;23.80;56.20
64888;DHT22;51386;53.082;8.816;2023-07-22T10:44:31;23.60;56.50
64888;DHT22;51386;53.082;8.816;2023-07-22T10:46:59;23.60;56.70
64888;DHT22;51386;53.082;8.816;2023-07-22T10:49:41;23.40;56.60
64888;DHT22;51386;53.082;8.816;2023-07-22T10:52:11;23.30;57.10
64888;DHT22;51386;53.082;8.816;2023-07-22T10:54:41;23.10;57.10
64888;DHT22;51386;53.082;8.816;2023-07-22T10:57:23;23.00;57.50
64888;DHT22;51386;53.082;8.816;2023-07-22T10:59:52;22.90;57.70
64888;DHT22;51386;53.082;8.816;2023-07-22T11:02:24;22.90;57.80
64888;DHT22;51386;53.082;8.816;2023-07-22T11:04:52;22.90;57.40
64888;DHT22;51386;53.082;8.816;2023-07-22T11:07:32;22.80;57.50
64888;DHT22;51386;53.082;8.816;2023-07-22T11:10:15;22.90;57.90
64888;DHT22;51386;53.082;8.816;2023-07-22T11:12:45;22.90;57.10
64888;DHT22;51386;53.082;8.816;2023-07-22T11:15:15;22.90;57.10
64888;DHT22;51386;53.082;8.816;2023-07-22T11:17:46;22.90;57.20
64888;DHT22;51386;53.082;8.816;2023-07-22T11:20:13;23.00;57.30
64888;DHT22;51386;53.082;8.816;2023-07-22T11:22:41;23.10;57.70
64888;DHT22;51386;53.082;8.816;2023-07-22T11:25:08;23.30;57.60
64888;DHT22;51386;53.082;8.816;2023-07-22T11:27:38;23.40;57.50
64888;DHT22;51386;53.082;8.816;2023-07-22T11:30:06;23.50;56.20
64888;DHT22;51386;53.082;8.816;2023-07-22T11:32:34;23.50;55.80
64888;DHT22;51386;53.082;8.816;2023-07-22T11:35:01;23.50;55.90
64888;DHT22;51386;53.082;8.816;2023-07-22T11:37:28;23.50;56.30
64888;DHT22;51386;53.082;8.816;2023-07-22T11:39:59;23.40;55.80
64888;DHT22;51386;53.082;8.816;2023-07-22T11:42:26;23.40;55.80
64888;DHT22;51386;53.082;8.816;2023-07-22T11:44:56;23.40;56.20
64888;DHT22;51386;53.082;8.816;2023-07-22T11:47:28;23.30;56.30
64888;DHT22;51386;53.082;8.816;2023-07-22T11:49:58;23.40;56.40
64888;DHT22;51386;53.082;8.816;2023-07-22T11:52:25;23.40;56.00
64888;DHT22;51386;53.082;8.816;2023-07-22T11:54:52;23.40;56.30
64888;DHT22;51386;53.082;8.816;2023-07-22T11:57:21;23.40;57.30
64888;DHT22;51386;53.082;8.816;2023-07-22T11:59:51;23.40;56.30
64888;DHT22;51386;53.082;8.816;2023-07-22T12:02:21;23.30;55.80
64888;DHT22;51386;53.082;8.816;2023-07-22T12:04:53;23.30;55.00
64888;DHT22;51386;53.082;8.816;2023-07-22T12:07:24;23.10;55.10
64888;DHT22;51386;53.082;8.816;2023-07-22T12:09:54;23.00;55.40
64888;DHT22;51386;53.082;8.816;2023-07-22T12:12:32;22.90;55.80
64888;DHT22;51386;53.082;8.816;2023-07-22T12:15:02;22.90;56.10
64888;DHT22;51386;53.082;8.816;2023-07-22T12:17:45;22.80;56.40
64888;DHT22;51386;53.082;8.816;2023-07-22T12:20:14;22.70;56.10
64888;DHT22;51386;53.082;8.816;2023-07-22T12:22:42;22.70;56.30
64888;DHT22;51386;53.082;8.816;2023-07-22T12:25:10;22.60;56.60
64888;DHT22;51386;53.082;8.816;2023-07-22T12:27:39;22.50;56.80
64888;DHT22;51386;53.082;8.816;2023-07-22T12:30:07;22.50;57.20
64888;DHT22;51386;53.082;8.816;2023-07-22T12:32:35;22.40;57.80
64888;DHT22;51386;53.082;8.816;2023-07-22T12:35:04;22.40;58.10
64888;DHT22;51386;53.082;8.816;2023-07-22T12:37:33;22.40;58.40
64888;DHT22;51386;53.082;8.816;2023-07-22T12:40:00;22.40;58.60
64888;DHT22;51386;53.082;8.816;2023-07-22T12:42:27;22.40;58.80
64888;DHT22;51386;53.082;8.816;2023-07-22T12:44:54;22.40;58.70
64888;DHT22;51386;53.082;8.816;2023-07-22T12:47:21;22.40;58.60
64888;DHT22;51386;53.082;8.816;2023-07-22T12:49:48;22.40;58.60
64888;DHT22;51386;53.082;8.816;2023-07-22T12:52:17;22.40;58.80
64888;DHT22;51386;53.082;8.816;2023-07-22T12:54:44;22.50;59.00
64888;DHT22;51386;53.082;8.816;2023-07-22T12:57:12;22.50;58.80
64888;DHT22;51386;53.082;8.816;2023-07-22T12:59:39;22.60;58.90
64888;DHT22;51386;53.082;8.816;2023-07-22T13:02:07;22.60;61.80
64888;DHT22;51386;53.082;8.816;2023-07-22T13:04:34;22.50;62.20
64888;DHT22;51386;53.082;8.816;2023-07-22T13:07:01;22.50;64.70
64888;DHT22;51386;53.082;8.816;2023-07-22T13:09:29;22.40;65.80
64888;DHT22;51386;53.082;8.816;2023-07-22T13:11:57;22.30;67.50
64888;DHT22;51386;53.082;8.816;2023-07-22T13:14:24;22.20;69.60
64888;DHT22;51386;53.082;8.816;2023-07-22T13:16:51;22.10;70.00
64888;DHT22;51386;53.082;8.816;2023-07-22T13:19:18;22.00;70.50
64888;DHT22;51386;53.082;8.816;2023-07-22T13:21:45;22.00;71.70
64888;DHT22;51386;53.082;8.816;2023-07-22T13:24:12;21.90;72.40
64888;DHT22;51386;53.082;8.816;2023-07-22T13:26:40;21.80;72.80
64888;DHT22;51386;53.082;8.816;2023-07-22T13:29:08;21.90;73.50
64888;DHT22;51386;53.082;8.816;2023-07-22T13:31:36;21.90;73.00
64888;DHT22;51386;53.082;8.816;2023-07-22T13:34:03;21.80;73.00
64888;DHT22;51386;53.082;8.816;2023-07-22T13:36:30;21.80;73.20
64888;DHT22;51386;53.082;8.816;2023-07-22T13:38:57;21.80;74.00
64888;DHT22;51386;53.082;8.816;2023-07-22T13:41:24;21.80;74.30
64888;DHT22;51386;53.082;8.816;2023-07-22T13:43:53;21.80;74.50
64888;DHT22;51386;53.082;8.816;2023-07-22T13:46:20;21.70;74.50
64888;DHT22;51386;53.082;8.816;2023-07-22T13:48:48;21.70;74.40
64888;DHT22;51386;53.082;8.816;2023-07-22T13:51:15;21.60;74.80
64888;DHT22;51386;53.082;8.816;2023-07-22T13:53:42;21.60;74.80
64888;DHT22;51386;53.082;8.816;2023-07-22T13:56:09;21.60;74.90
64888;DHT22;51386;53.082;8.816;2023-07-22T13:58:36;21.50;75.30
64888;DHT22;51386;53.082;8.816;2023-07-22T14:01:05;21.50;75.50
64888;DHT22;51386;53.082;8.816;2023-07-22T14:03:32;21.50;75.50
64888;DHT22;51386;53.082;8.816;2023-07-22T14:05:59;21.50;75.50
64888;DHT22;51386;53.082;8.816;2023-07-22T14:08:26;21.50;75.30
64888;DHT22;51386;53.082;8.816;2023-07-22T14:10:53;21.50;75.50
64888;DHT22;51386;53.082;8.816;2023-07-22T14:13:21;21.40;75.50
64888;DHT22;51386;53.082;8.816;2023-07-22T14:15:48;21.40;75.60
64888;DHT22;51386;53.082;8.816;2023-07-22T14:18:16;21.30;75.50
64888;DHT22;51386;53.082;8.816;2023-07-22T14:20:45;21.20;75.90
64888;DHT22;51386;53.082;8.816;2023-07-22T14:23:14;21.10;76.00
64888;DHT22;51386;53.082;8.816;2023-07-22T14:25:41;21.10;76.30
64888;DHT22;51386;53.082;8.816;2023-07-22T14:28:08;21.00;77.00
64888;DHT22;51386;53.082;8.816;2023-07-22T14:30:35;21.00;77.70
64888;DHT22;51386;53.082;8.816;2023-07-22T14:33:02;20.90;78.20
64888;DHT22;51386;53.082;8.816;2023-07-22T14:35:31;20.90;78.80
64888;DHT22;51386;53.082;8.816;2023-07-22T14:38:01;20.90;79.50
64888;DHT22;51386;53.082;8.816;2023-07-22T14:40:29;20.90;79.90
64888;DHT22;51386;53.082;8.816;2023-07-22T14:42:56;20.90;80.90
64888;DHT22;51386;53.082;8.816;2023-07-22T14:45:23;20.90;80.50
64888;DHT22;51386;53.082;8.816;2023-07-22T14:47:50;20.80;80.80
64888;DHT22;51386;53.082;8.816;2023-07-22T14:50:17;20.80;81.40
64888;DHT22;51386;53.082;8.816;2023-07-22T14:52:45;20.70;81.60
64888;DHT22;51386;53.082;8.816;2023-07-22T14:55:12;20.70;81.80
64888;DHT22;51386;53.082;8.816;2023-07-22T14:57:40;20.70;82.20
64888;DHT22;51386;53.082;8.816;2023-07-22T15:00:08;20.60;82.20
64888;DHT22;51386;53.082;8.816;2023-07-22T15:02:37;20.60;82.20
64888;DHT22;51386;53.082;8.816;2023-07-22T15:05:04;20.50;81.40
64888;DHT22;51386;53.082;8.816;2023-07-22T15:07:32;20.50;81.50
64888;DHT22;51386;53.082;8.816;2023-07-22T15:10:00;20.50;81.70
64888;DHT22;51386;53.082;8.816;2023-07-22T15:12:27;20.50;81.80
64888;DHT22;51386;53.082;8.816;2023-07-22T15:14:54;20.60;82.00
64888;DHT22;51386;53.082;8.816;2023-07-22T15:17:21;20.60;82.40
64888;DHT22;51386;53.082;8.816;2023-07-22T15:19:50;20.60;81.80
64888;DHT22;51386;53.082;8.816;2023-07-22T15:22:17;20.70;81.90
64888;DHT22;51386;53.082;8.816;2023-07-22T15:24:44;20.60;82.00
64888;DHT22;51386;53.082;8.816;2023-07-22T15:27:12;20.70;82.30
64888;DHT22;51386;53.082;8.816;2023-07-22T15:29:39;20.70;81.70
64888;DHT22;51386;53.082;8.816;2023-07-22T15:32:07;20.60;80.80
64888;DHT22;51386;53.082;8.816;2023-07-22T15:34:34;20.60;81.10
64888;DHT22;51386;53.082;8.816;2023-07-22T15:37:01;20.50;81.60